createdAt,value
2023-01-09T00:01:19.209Z,-16.19
2023-01-09T00:03:47.827Z,-16.34
2023-01-09T00:06:16.490Z,-16.40
2023-01-09T00:08:45.276Z,-16.21
2023-01-09T00:11:15.111Z,-16.41
2023-01-09T00:13:43.565Z,-16.41
2023-01-09T00:16:12.677Z,-16.41
2023-01-09T00:18:41.097Z,-16.49
2023-01-09T00:21:11.687Z,-16.31
2023-01-09T00:23:40.362Z,-16.36
2023-01-09T00:26:10.024Z,-16.36
2023-01-09T00:28:39.793Z,-16.35
2023-01-09T00:31:09.715Z,-16.38
2023-01-09T00:33:41.125Z,-16.37
2023-01-09T00:36:10.508Z,-16.36
2023-01-09T00:38:39.649Z,-16.36
2023-01-09T00:41:10.218Z,-16.36
2023-01-09T00:43:42.725Z,-16.23
2023-01-09T00:46:11.952Z,-16.32
2023-01-09T00:48:42.215Z,-16.38
2023-01-09T00:51:10.729Z,-16.40
2023-01-09T00:53:40.698Z,-16.44
2023-01-09T00:56:12.854Z,-16.42
2023-01-09T00:58:42.956Z,-16.42
2023-01-09T01:01:12.284Z,-16.47
2023-01-09T01:03:40.796Z,-16.47
2023-01-09T01:06:26.779Z,-16.46
2023-01-09T01:08:56.984Z,-16.47
2023-01-09T01:11:25.802Z,-16.41
2023-01-09T01:13:55.492Z,-16.35
2023-01-09T01:16:23.883Z,-16.35
2023-01-09T01:18:52.299Z,-16.54
2023-01-09T01:21:20.681Z,-16.47
2023-01-09T01:23:48.983Z,-16.49
2023-01-09T01:26:20.592Z,-16.42
2023-01-09T01:28:48.966Z,-16.50
2023-01-09T01:31:20.259Z,-16.44
2023-01-09T01:33:48.715Z,-16.43
2023-01-09T01:36:18.039Z,-16.32
2023-01-09T01:38:48.097Z,-16.16
2023-01-09T01:41:29.682Z,-16.12
2023-01-09T01:43:59.776Z,-16.11
2023-01-09T01:46:30.250Z,-16.04
2023-01-09T01:49:03.983Z,-16.06
2023-01-09T01:51:40.472Z,-16.05
2023-01-09T01:54:14.597Z,-16.19
2023-01-09T01:56:45.470Z,-15.96
2023-01-09T01:59:18.645Z,-16.06
2023-01-09T02:01:51.408Z,-16.02
2023-01-09T02:04:19.972Z,-16.06
2023-01-09T02:06:49.299Z,-16.12
2023-01-09T02:09:20.599Z,-16.22
2023-01-09T02:11:52.416Z,-16.32
2023-01-09T02:14:21.742Z,-16.37
2023-01-09T02:17:17.970Z,-16.52
2023-01-09T02:20:23.655Z,-16.42
2023-01-09T02:22:53.780Z,-16.46
2023-01-09T02:25:45.226Z,-16.51
2023-01-09T02:28:53.988Z,-16.63
2023-01-09T02:31:27.410Z,-16.72
2023-01-09T02:34:00.667Z,-16.76
2023-01-09T02:36:32.575Z,-16.83
2023-01-09T02:39:12.358Z,-16.92
2023-01-09T02:44:21.710Z,-16.89
2023-01-09T02:47:01.327Z,-17.05
2023-01-09T02:49:30.017Z,-16.93
2023-01-09T02:52:05.885Z,-17.07
2023-01-09T02:54:40.516Z,-17.04
2023-01-09T02:57:19.934Z,-16.98
2023-01-09T03:00:09.185Z,-17.09
2023-01-09T03:02:49.530Z,-17.22
2023-01-09T03:05:22.769Z,-17.37
2023-01-09T03:07:56.729Z,-17.42
2023-01-09T03:10:29.595Z,-17.60
2023-01-09T03:12:59.861Z,-17.68
2023-01-09T03:15:31.419Z,-17.75
2023-01-09T03:18:02.331Z,-17.79
2023-01-09T03:20:31.699Z,-17.88
2023-01-09T03:23:01.574Z,-17.87
2023-01-09T03:25:31.708Z,-17.92
2023-01-09T03:28:01.790Z,-17.93
2023-01-09T03:30:31.211Z,-17.91
2023-01-09T03:33:01.340Z,-18.00
2023-01-09T03:35:30.061Z,-18.16
2023-01-09T03:37:59.162Z,-18.18
2023-01-09T03:40:27.644Z,-18.31
2023-01-09T03:42:56.122Z,-18.24
2023-01-09T03:45:24.615Z,-18.22
2023-01-09T03:47:53.175Z,-18.25
2023-01-09T03:50:23.066Z,-18.29
2023-01-09T03:52:52.420Z,-18.23
2023-01-09T03:55:20.886Z,-18.32
2023-01-09T03:57:52.828Z,-18.17
2023-01-09T04:00:22.108Z,-18.22
2023-01-09T04:02:50.615Z,-18.31
2023-01-09T04:05:19.051Z,-18.26
2023-01-09T04:07:48.781Z,-18.27
2023-01-09T04:10:18.002Z,-18.20
2023-01-09T04:12:46.432Z,-18.19
2023-01-09T04:15:14.867Z,-18.29
2023-01-09T04:17:43.220Z,-18.35
2023-01-09T04:20:12.606Z,-18.35
2023-01-09T04:22:41.227Z,-18.15
2023-01-09T04:25:14.613Z,-18.30
2023-01-09T04:27:43.010Z,-18.19
2023-01-09T04:30:12.613Z,-18.16
2023-01-09T04:32:41.070Z,-18.01
2023-01-09T04:35:10.062Z,-17.94
2023-01-09T04:37:39.521Z,-17.99
2023-01-09T04:40:12.435Z,-17.89
2023-01-09T04:42:41.672Z,-17.86
2023-01-09T04:45:15.533Z,-17.76
2023-01-09T04:47:44.835Z,-17.80
2023-01-09T04:50:14.090Z,-17.76
2023-01-09T04:52:42.471Z,-17.81
2023-01-09T04:55:12.413Z,-17.85
2023-01-09T04:57:41.136Z,-17.79
2023-01-09T05:00:12.439Z,-17.84
2023-01-09T05:02:42.043Z,-17.89
2023-01-09T05:05:11.831Z,-17.80
2023-01-09T05:07:41.147Z,-17.75
2023-01-09T05:10:12.553Z,-17.78
2023-01-09T05:12:41.546Z,-17.88
2023-01-09T05:15:10.762Z,-17.99
2023-01-09T05:17:39.220Z,-17.83
2023-01-09T05:20:08.485Z,-17.83
2023-01-09T05:22:37.018Z,-17.85
2023-01-09T05:25:05.789Z,-17.85
2023-01-09T05:27:35.613Z,-17.92
2023-01-09T05:30:04.073Z,-18.01
2023-01-09T05:32:36.155Z,-17.93
2023-01-09T05:35:04.767Z,-17.96
2023-01-09T05:37:33.191Z,-17.93
2023-01-09T05:40:01.560Z,-17.90
2023-01-09T05:42:31.898Z,-17.95
2023-01-09T05:45:01.661Z,-17.97
2023-01-09T05:47:30.439Z,-17.93
2023-01-09T05:49:58.802Z,-17.99
2023-01-09T05:52:27.393Z,-17.95
2023-01-09T05:54:55.866Z,-17.95
2023-01-09T05:57:24.336Z,-18.01
2023-01-09T05:59:52.932Z,-18.16
2023-01-09T06:02:22.799Z,-18.16
2023-01-09T06:04:51.225Z,-18.03
2023-01-09T06:07:22.085Z,-18.12
2023-01-09T06:09:51.705Z,-18.01
2023-01-09T06:12:20.421Z,-17.84
2023-01-09T06:14:48.776Z,-17.95
2023-01-09T06:17:17.152Z,-17.92
2023-01-09T06:19:46.891Z,-17.98
2023-01-09T06:22:15.457Z,-17.76
2023-01-09T06:24:43.884Z,-17.74
2023-01-09T06:27:13.183Z,-17.75
2023-01-09T06:29:41.610Z,-17.59
2023-01-09T06:32:09.990Z,-17.82
2023-01-09T06:34:38.357Z,-17.74
2023-01-09T06:37:09.179Z,-17.70
2023-01-09T06:39:37.552Z,-17.84
2023-01-09T06:42:06.053Z,-17.89
2023-01-09T06:44:36.799Z,-17.81
2023-01-09T06:47:05.337Z,-17.79
2023-01-09T06:49:33.716Z,-17.68
2023-01-09T06:52:05.714Z,-17.81
2023-01-09T06:54:35.746Z,-17.88
2023-01-09T06:57:04.144Z,-17.68
2023-01-09T06:59:32.625Z,-17.82
2023-01-09T07:02:01.126Z,-17.84
2023-01-09T07:04:29.683Z,-17.87
2023-01-09T07:06:58.051Z,-17.74
2023-01-09T07:09:26.496Z,-17.56
2023-01-09T07:11:56.278Z,-17.45
2023-01-09T07:14:24.694Z,-17.41
2023-01-09T07:16:53.054Z,-17.36
2023-01-09T07:19:21.414Z,-17.41
2023-01-09T07:21:49.769Z,-17.53
2023-01-09T07:24:18.139Z,-17.46
2023-01-09T07:26:46.563Z,-17.41
2023-01-09T07:29:16.411Z,-17.44
2023-01-09T07:31:47.059Z,-17.47
2023-01-09T07:34:15.527Z,-17.26
2023-01-09T07:36:46.628Z,-17.16
2023-01-09T07:39:15.286Z,-16.95
2023-01-09T07:41:43.729Z,-17.05
2023-01-09T07:44:12.226Z,-17.11
2023-01-09T07:46:43.047Z,-17.06
2023-01-09T07:49:11.610Z,-16.97
2023-01-09T07:51:43.378Z,-16.76
2023-01-09T07:54:12.740Z,-17.07
2023-01-09T07:56:41.308Z,-16.79
2023-01-09T07:59:09.757Z,-16.99
2023-01-09T08:01:38.299Z,-17.05
2023-01-09T08:04:08.253Z,-16.73
2023-01-09T08:06:36.741Z,-16.80
2023-01-09T08:09:05.231Z,-16.64
2023-01-09T08:11:33.620Z,-16.40
2023-01-09T08:14:01.946Z,-16.70
2023-01-09T08:16:30.361Z,-16.93
2023-01-09T08:18:58.730Z,-17.11
2023-01-09T08:21:28.457Z,-17.12
2023-01-09T08:23:56.895Z,-16.83
2023-01-09T08:26:25.272Z,-16.67
2023-01-09T08:28:53.717Z,-16.70
2023-01-09T08:31:22.153Z,-16.72
2023-01-09T08:33:50.599Z,-16.78
2023-01-09T08:36:19.019Z,-16.74
2023-01-09T08:38:48.784Z,-16.79
2023-01-09T08:41:34.564Z,-16.53
2023-01-09T08:44:20.513Z,-16.75
2023-01-09T08:47:07.012Z,-16.81
2023-01-09T08:49:36.191Z,-16.86
2023-01-09T08:52:05.115Z,-16.72
2023-01-09T08:54:36.945Z,-16.93
2023-01-09T08:57:05.526Z,-17.28
2023-01-09T08:59:33.944Z,-17.30
2023-01-09T09:02:02.532Z,-17.24
2023-01-09T09:04:31.304Z,-17.17
2023-01-09T09:06:59.771Z,-17.11
2023-01-09T09:09:28.182Z,-17.49
2023-01-09T09:11:57.965Z,-17.50
2023-01-09T09:14:43.975Z,-17.45
2023-01-09T09:17:14.578Z,-17.74
2023-01-09T09:19:43.586Z,-17.47
2023-01-09T09:22:14.534Z,-17.25
2023-01-09T09:24:43.147Z,-17.23
2023-01-09T09:27:12.925Z,-17.17
2023-01-09T09:29:41.274Z,-17.31
2023-01-09T09:32:09.621Z,-17.47
2023-01-09T09:34:37.994Z,-17.72
2023-01-09T09:37:06.499Z,-17.38
2023-01-09T09:39:35.121Z,-17.52
2023-01-09T09:42:40.801Z,-17.17
2023-01-09T09:45:22.283Z,-17.44
2023-01-09T09:47:57.374Z,-17.39
2023-01-09T09:50:32.209Z,-17.55
2023-01-09T09:53:04.827Z,-17.46
2023-01-09T09:55:35.614Z,-17.85
2023-01-09T09:58:08.473Z,-18.13
2023-01-09T10:00:37.019Z,-18.10
2023-01-09T10:03:07.770Z,-18.23
2023-01-09T10:05:37.275Z,-18.18
2023-01-09T10:08:15.651Z,-18.08
2023-01-09T10:10:48.235Z,-18.09
2023-01-09T10:13:37.654Z,-17.99
2023-01-09T10:16:10.119Z,-17.55
2023-01-09T10:18:48.213Z,-17.71
2023-01-09T10:21:18.903Z,-16.97
2023-01-09T10:24:04.684Z,-17.43
2023-01-09T10:26:38.258Z,-17.43
2023-01-09T10:29:28.257Z,-17.18
2023-01-09T10:32:07.644Z,-17.11
2023-01-09T10:34:47.014Z,-17.15
2023-01-09T10:37:16.926Z,-16.76
2023-01-09T10:39:50.144Z,-16.82
2023-01-09T10:42:23.687Z,-16.94
2023-01-09T10:44:57.029Z,-17.18
2023-01-09T10:47:29.309Z,-16.97
2023-01-09T10:49:58.550Z,-17.08
2023-01-09T10:52:30.450Z,-17.04
2023-01-09T10:55:07.343Z,-16.89
2023-01-09T10:57:42.098Z,-17.19
2023-01-09T11:00:21.580Z,-16.99
2023-01-09T11:02:52.037Z,-17.32
2023-01-09T11:05:22.305Z,-17.11
2023-01-09T11:07:54.425Z,-17.19
2023-01-09T11:10:22.903Z,-17.22
2023-01-09T11:12:51.285Z,-17.22
2023-01-09T11:15:29.282Z,-17.29
2023-01-09T11:18:19.849Z,-17.02
2023-01-09T11:20:48.286Z,-17.10
2023-01-09T11:23:28.877Z,-17.26
2023-01-09T11:25:58.990Z,-17.10
2023-01-09T11:28:27.562Z,-17.23
2023-01-09T11:30:59.857Z,-17.20
2023-01-09T11:33:30.400Z,-17.01
2023-01-09T11:36:02.107Z,-16.97
2023-01-09T11:38:31.137Z,-17.48
2023-01-09T11:41:01.649Z,-17.72
2023-01-09T11:43:33.882Z,-17.23
2023-01-09T11:46:05.807Z,-17.22
2023-01-09T11:48:39.860Z,-17.44
2023-01-09T11:51:20.508Z,-17.52
2023-01-09T11:54:14.213Z,-17.46
2023-01-09T11:56:42.986Z,-17.54
2023-01-09T11:59:13.456Z,-17.44
2023-01-09T12:02:06.912Z,-17.36
2023-01-09T12:04:37.396Z,-17.41
2023-01-09T12:07:22.434Z,-17.54
2023-01-09T12:09:59.265Z,-17.64
2023-01-09T12:12:32.800Z,-17.67
2023-01-09T12:15:17.731Z,-17.53
2023-01-09T12:17:58.198Z,-17.78
2023-01-09T12:20:35.141Z,-17.71
2023-01-09T12:23:17.261Z,-17.54
2023-01-09T12:25:52.064Z,-17.47
2023-01-09T12:28:47.175Z,-16.71
2023-01-09T12:31:26.849Z,-16.91
2023-01-09T12:34:04.316Z,-17.05
2023-01-09T12:36:36.873Z,-17.21
2023-01-09T12:39:10.596Z,-17.52
2023-01-09T12:41:58.176Z,-17.77
2023-01-09T12:44:54.664Z,-17.76
2023-01-09T12:47:45.350Z,-18.03
2023-01-09T12:50:43.707Z,-18.02
2023-01-09T12:53:20.079Z,-18.04
2023-01-09T12:55:53.496Z,-18.08
2023-01-09T12:58:30.606Z,-18.25
2023-01-09T13:01:00.448Z,-18.28
2023-01-09T13:03:33.383Z,-18.38
2023-01-09T13:06:02.771Z,-18.36
2023-01-09T13:08:33.910Z,-18.40
2023-01-09T13:11:19.369Z,-18.34
2023-01-09T13:13:51.448Z,-18.50
2023-01-09T13:16:23.370Z,-18.57
2023-01-09T13:18:57.261Z,-18.64
2023-01-09T13:21:26.449Z,-18.53
2023-01-09T13:24:00.459Z,-18.59
2023-01-09T13:26:30.574Z,-18.62
2023-01-09T13:29:03.290Z,-18.68
2023-01-09T13:31:48.413Z,-18.65
2023-01-09T13:34:22.402Z,-18.74
2023-01-09T13:36:53.168Z,-18.67
2023-01-09T13:39:24.598Z,-18.70
2023-01-09T13:42:13.256Z,-18.60
2023-01-09T13:44:42.146Z,-18.71
2023-01-09T13:47:18.956Z,-18.67
2023-01-09T13:50:23.952Z,-18.69
2023-01-09T13:52:52.265Z,-18.77
2023-01-09T13:55:36.252Z,-18.67
2023-01-09T13:58:22.797Z,-18.65
2023-01-09T14:01:08.110Z,-18.62
2023-01-09T14:03:37.841Z,-18.57
2023-01-09T14:06:24.406Z,-18.65
2023-01-09T14:09:14.008Z,-18.54
2023-01-09T14:11:44.845Z,-18.52
2023-01-09T14:14:28.998Z,-18.51
2023-01-09T14:16:59.286Z,-18.47
2023-01-09T14:19:38.574Z,-18.43
2023-01-09T14:22:07.434Z,-18.38
2023-01-09T14:24:42.401Z,-18.33
2023-01-09T14:27:44.128Z,-18.38
2023-01-09T14:30:30.471Z,-18.25
2023-01-09T14:32:59.750Z,-18.25
2023-01-09T14:35:30.599Z,-18.13
2023-01-09T14:38:08.422Z,-18.12
2023-01-09T14:40:37.455Z,-18.14
2023-01-09T14:43:22.966Z,-18.17
2023-01-09T14:45:53.720Z,-18.11
2023-01-09T14:48:24.572Z,-18.25
2023-01-09T14:50:55.870Z,-18.31
2023-01-09T14:53:26.340Z,-18.28
2023-01-09T14:55:55.776Z,-18.27
2023-01-09T14:58:25.904Z,-18.35
2023-01-09T15:01:00.453Z,-18.23
2023-01-09T15:03:30.167Z,-18.19
2023-01-09T15:05:58.575Z,-18.47
2023-01-09T15:08:28.926Z,-18.52
2023-01-09T15:10:58.182Z,-18.52
2023-01-09T15:13:33.803Z,-18.46
2023-01-09T15:16:06.086Z,-18.45
2023-01-09T15:18:39.533Z,-18.64
2023-01-09T15:21:07.979Z,-18.66
2023-01-09T15:23:36.383Z,-18.70
2023-01-09T15:26:15.985Z,-18.56
2023-01-09T15:28:45.219Z,-18.71
2023-01-09T15:31:17.322Z,-18.73
2023-01-09T15:33:47.844Z,-18.74
2023-01-09T15:36:19.909Z,-18.74
2023-01-09T15:38:49.769Z,-18.77
2023-01-09T15:41:40.901Z,-18.66
2023-01-09T15:44:14.782Z,-18.72
2023-01-09T15:46:46.581Z,-18.65
2023-01-09T15:49:15.596Z,-18.65
2023-01-09T15:51:45.810Z,-18.71
2023-01-09T15:54:15.846Z,-18.68
2023-01-09T15:56:46.101Z,-18.76
2023-01-09T15:59:24.585Z,-18.76
2023-01-09T16:02:20.897Z,-18.81
2023-01-09T16:04:50.284Z,-18.83
2023-01-09T16:07:21.669Z,-18.84
2023-01-09T16:09:53.538Z,-18.79
2023-01-09T16:12:23.982Z,-18.78
2023-01-09T16:14:53.928Z,-18.83
2023-01-09T16:17:26.755Z,-18.79
2023-01-09T16:19:58.051Z,-18.92
2023-01-09T16:22:27.815Z,-18.92
2023-01-09T16:24:58.571Z,-18.93
2023-01-09T16:27:29.047Z,-18.86
2023-01-09T16:29:59.838Z,-18.86
2023-01-09T16:32:31.785Z,-18.92
2023-01-09T16:35:01.456Z,-18.91
2023-01-09T16:37:32.271Z,-18.94
2023-01-09T16:40:26.534Z,-18.93
2023-01-09T16:43:03.495Z,-18.84
2023-01-09T16:45:34.656Z,-18.74
2023-01-09T16:48:11.191Z,-18.78
2023-01-09T16:50:40.416Z,-18.83
2023-01-09T16:53:14.769Z,-18.81
2023-01-09T16:55:43.431Z,-18.97
2023-01-09T16:58:17.606Z,-18.96
2023-01-09T17:00:48.250Z,-18.92
2023-01-09T17:03:20.372Z,-18.93
2023-01-09T17:05:55.250Z,-19.07
2023-01-09T17:08:28.365Z,-19.02
2023-01-09T17:10:58.253Z,-19.05
2023-01-09T17:13:27.873Z,-18.93
2023-01-09T17:15:57.736Z,-19.11
2023-01-09T17:18:29.676Z,-19.05
2023-01-09T17:20:59.450Z,-19.11
2023-01-09T17:23:28.933Z,-19.13
2023-01-09T17:26:16.810Z,-19.10
2023-01-09T17:28:46.455Z,-19.15
2023-01-09T17:31:16.143Z,-19.09
2023-01-09T17:33:45.988Z,-19.12
2023-01-09T17:36:21.329Z,-19.04
2023-01-09T17:38:54.849Z,-19.20
2023-01-09T17:41:23.979Z,-19.07
2023-01-09T17:43:52.438Z,-19.01
2023-01-09T17:46:24.702Z,-19.01
2023-01-09T17:48:54.637Z,-19.13
2023-01-09T17:51:23.384Z,-19.12
2023-01-09T17:53:51.892Z,-19.14
2023-01-09T17:56:22.635Z,-19.05
2023-01-09T17:58:51.130Z,-19.07
2023-01-09T18:01:21.173Z,-19.08
2023-01-09T18:03:50.703Z,-19.03
2023-01-09T18:06:22.211Z,-18.99
2023-01-09T18:08:50.955Z,-18.96
2023-01-09T18:11:24.297Z,-18.89
2023-01-09T18:13:54.375Z,-19.02
2023-01-09T18:16:25.258Z,-18.93
2023-01-09T18:18:54.823Z,-19.12
2023-01-09T18:21:25.364Z,-19.07
2023-01-09T18:23:53.942Z,-19.20
2023-01-09T18:26:25.644Z,-19.17
2023-01-09T18:28:56.962Z,-19.31
2023-01-09T18:31:28.349Z,-19.26
2023-01-09T18:33:58.270Z,-19.21
2023-01-09T18:36:30.117Z,-19.19
2023-01-09T18:39:00.700Z,-19.23
2023-01-09T18:41:30.107Z,-19.26
2023-01-09T18:44:00.228Z,-19.22
2023-01-09T18:46:32.452Z,-19.30
2023-01-09T18:49:02.405Z,-19.38
2023-01-09T18:51:34.793Z,-19.44
2023-01-09T18:54:03.209Z,-19.41
2023-01-09T18:56:31.901Z,-19.52
2023-01-09T18:59:00.413Z,-19.63
2023-01-09T19:01:29.731Z,-19.55
2023-01-09T19:03:58.528Z,-19.62
2023-01-09T19:06:27.427Z,-19.61
2023-01-09T19:08:57.552Z,-19.64
2023-01-09T19:11:25.996Z,-19.53
2023-01-09T19:13:54.659Z,-19.67
2023-01-09T19:16:23.093Z,-19.77
2023-01-09T19:18:51.570Z,-19.71
2023-01-09T19:21:21.192Z,-19.76
2023-01-09T19:23:51.125Z,-19.73
2023-01-09T19:26:23.865Z,-19.62
2023-01-09T19:28:55.334Z,-19.71
2023-01-09T19:31:24.787Z,-19.73
2023-01-09T19:33:54.211Z,-19.70
2023-01-09T19:36:23.216Z,-19.77
2023-01-09T19:38:57.113Z,-19.67
2023-01-09T19:41:28.399Z,-19.59
2023-01-09T19:43:57.003Z,-19.70
2023-01-09T19:46:26.618Z,-19.65
2023-01-09T19:48:55.177Z,-19.75
2023-01-09T19:51:24.961Z,-19.70
2023-01-09T19:53:54.937Z,-19.60
2023-01-09T19:56:24.760Z,-19.61
2023-01-09T19:58:55.636Z,-19.61
2023-01-09T20:01:25.763Z,-19.66
2023-01-09T20:03:56.567Z,-19.64
2023-01-09T20:06:26.562Z,-19.60
2023-01-09T20:08:56.700Z,-19.62
2023-01-09T20:11:26.549Z,-19.74
2023-01-09T20:13:56.750Z,-19.58
2023-01-09T20:16:28.387Z,-19.73
2023-01-09T20:18:57.831Z,-19.62
2023-01-09T20:21:27.999Z,-19.66
2023-01-09T20:23:58.210Z,-19.68
2023-01-09T20:26:27.161Z,-19.70
2023-01-09T20:28:57.416Z,-19.62
2023-01-09T20:31:28.260Z,-19.70
2023-01-09T20:33:59.061Z,-19.78
2023-01-09T20:36:30.251Z,-19.74
2023-01-09T20:39:01.134Z,-19.77
2023-01-09T20:41:31.476Z,-19.69
2023-01-09T20:44:07.123Z,-19.74
2023-01-09T20:46:37.287Z,-19.74
2023-01-09T20:51:36.303Z,-19.65
2023-01-09T20:56:36.265Z,-19.67
2023-01-09T20:59:07.055Z,-19.67
2023-01-09T21:01:35.696Z,-19.66
2023-01-09T21:04:04.297Z,-19.67
2023-01-09T21:06:33.134Z,-19.71
2023-01-09T21:09:01.517Z,-19.64
2023-01-09T21:11:30.060Z,-19.67
2023-01-09T21:13:58.623Z,-19.68
2023-01-09T21:16:29.477Z,-19.69
2023-01-09T21:18:57.957Z,-19.61
2023-01-09T21:21:27.796Z,-19.71
2023-01-09T21:23:58.337Z,-19.62
2023-01-09T21:26:30.475Z,-19.66
2023-01-09T21:29:01.404Z,-19.50
2023-01-09T21:31:34.934Z,-19.53
2023-01-09T21:34:05.707Z,-19.41
2023-01-09T21:36:35.501Z,-19.51
2023-01-09T21:39:07.479Z,-19.54
2023-01-09T21:41:53.826Z,-19.70
2023-01-09T21:44:39.503Z,-19.58
2023-01-09T21:47:09.327Z,-19.62
2023-01-09T21:49:41.137Z,-19.50
2023-01-09T21:52:09.805Z,-19.59
2023-01-09T21:54:38.223Z,-19.72
2023-01-09T21:57:06.919Z,-19.65
2023-01-09T21:59:35.306Z,-19.70
2023-01-09T22:02:03.655Z,-19.58
2023-01-09T22:04:33.685Z,-19.62
2023-01-09T22:07:02.212Z,-19.61
2023-01-09T22:09:30.633Z,-19.55
2023-01-09T22:11:59.023Z,-19.67
2023-01-09T22:14:27.392Z,-19.62
2023-01-09T22:16:55.789Z,-19.57
2023-01-09T22:19:24.523Z,-19.68
2023-01-09T22:21:55.283Z,-19.75
2023-01-09T22:24:23.718Z,-19.58
2023-01-09T22:26:52.064Z,-19.45
2023-01-09T22:29:21.952Z,-19.57
2023-01-09T22:31:50.320Z,-19.54
2023-01-09T22:34:20.416Z,-19.56
2023-01-09T22:36:48.978Z,-19.46
2023-01-09T22:39:20.041Z,-19.37
2023-01-09T22:41:51.859Z,-19.48
2023-01-09T22:44:20.337Z,-19.55
2023-01-09T22:46:49.039Z,-19.64
2023-01-09T22:49:19.705Z,-19.59
2023-01-09T22:51:48.090Z,-19.72
2023-01-09T22:54:16.538Z,-19.59
2023-01-09T22:56:46.446Z,-19.47
2023-01-09T22:59:14.828Z,-19.58
2023-01-09T23:01:43.194Z,-19.46
2023-01-09T23:04:13.567Z,-19.37
2023-01-09T23:06:42.044Z,-19.30
2023-01-09T23:09:10.715Z,-19.38
2023-01-09T23:11:56.749Z,-19.54
2023-01-09T23:14:26.492Z,-19.58
2023-01-09T23:16:57.954Z,-19.67
2023-01-09T23:19:26.456Z,-19.59
2023-01-09T23:21:55.025Z,-19.49
2023-01-09T23:24:23.877Z,-19.54
2023-01-09T23:26:55.064Z,-19.53
2023-01-09T23:29:23.907Z,-19.41
2023-01-09T23:31:53.985Z,-19.29
2023-01-09T23:34:25.726Z,-19.43
2023-01-09T23:36:57.634Z,-19.40
2023-01-09T23:39:26.529Z,-19.41
2023-01-09T23:42:12.450Z,-19.49
2023-01-09T23:44:40.872Z,-19.30
2023-01-09T23:47:10.731Z,-19.24
2023-01-09T23:49:43.143Z,-19.27
2023-01-09T23:52:11.824Z,-19.19
2023-01-09T23:54:40.712Z,-19.19
2023-01-09T23:57:11.848Z,-19.22
2023-01-09T23:59:40.796Z,-19.33
